Time;durP1;ratioP1;P1;durP2;ratioP2;P2;SDS_P1;SDS_P2;PMS_P1;PMS_P2;Temp;Humidity;BMP_temperature;BMP_pressure;BME280_temperature;BME280_humidity;BME280_pressure;Samples;Min_cycle;Max_cycle;Signal;HPM_P1;HPM_P2
2022/03/24 00:00:18;;;;;;;;;39.25;34.25;;;;;14.47;30.39;102431.13;5119773;27;45602;-47
2022/03/24 00:02:44;;;;;;;;;45.50;35.50;;;;;14.43;30.50;102429.69;5119340;27;46101;-50
2022/03/24 00:05:11;;;;;;;;;44.50;34.75;;;;;14.45;30.56;102433.13;5119190;27;45781;-49
2022/03/24 00:07:37;;;;;;;;;45.50;36.00;;;;;14.38;30.33;102423.06;5119408;27;45379;-50
2022/03/24 00:10:03;;;;;;;;;45.25;34.25;;;;;14.44;30.64;102435.91;5119207;27;45391;-48
2022/03/24 00:12:28;;;;;;;;;44.50;34.50;;;;;14.33;30.45;102419.94;5119035;27;47814;-47
2022/03/24 00:14:53;;;;;;;;;39.75;32.75;;;;;14.37;30.76;102429.41;5119023;27;45474;-50
2022/03/24 00:17:19;;;;;;;;;44.00;36.50;;;;;14.34;30.84;102424.28;5119403;27;45273;-49
2022/03/24 00:19:44;;;;;;;;;45.00;34.50;;;;;14.36;30.69;102433.88;5119331;27;45349;-54
2022/03/24 00:22:10;;;;;;;;;43.50;33.25;;;;;14.30;30.84;102426.38;5119029;27;46224;-49
2022/03/24 00:24:37;;;;;;;;;40.50;35.00;;;;;14.31;30.78;102443.28;5118711;27;45266;-50
2022/03/24 00:27:03;;;;;;;;;42.25;37.00;;;;;14.29;30.52;102426.50;5118998;27;45374;-48
2022/03/24 00:29:28;;;;;;;;;41.00;33.50;;;;;14.27;30.76;102440.00;5119172;27;45218;-48
2022/03/24 00:31:54;;;;;;;;;40.25;33.50;;;;;14.25;31.07;102428.59;5118719;27;47191;-51
2022/03/24 00:34:19;;;;;;;;;44.25;35.25;;;;;14.24;31.08;102434.91;5118897;27;45428;-48
2022/03/24 00:36:45;;;;;;;;;43.50;33.50;;;;;14.19;31.62;102427.25;5119149;27;45442;-50
2022/03/24 00:39:10;;;;;;;;;37.75;34.25;;;;;14.11;31.67;102416.34;5119142;27;45845;-48
2022/03/24 00:41:36;;;;;;;;;43.75;37.25;;;;;14.15;31.89;102425.81;5118691;27;46088;-49
2022/03/24 00:44:03;;;;;;;;;53.75;36.50;;;;;14.13;31.96;102430.47;5118626;27;45403;-47
2022/03/24 00:46:31;;;;;;;;;49.25;39.00;;;;;14.10;31.84;102427.19;5118889;27;45393;-52
2022/03/24 00:48:57;;;;;;;;;48.00;38.25;;;;;14.07;32.12;102422.09;5118804;27;45297;-47
2022/03/24 00:51:23;;;;;;;;;47.00;38.25;;;;;14.05;32.11;102430.25;5118436;27;46471;-50
2022/03/24 00:53:49;;;;;;;;;48.75;38.50;;;;;14.01;32.53;102420.78;5118469;27;45404;-51
2022/03/24 00:56:15;;;;;;;;;41.00;35.75;;;;;13.90;32.53;102407.44;5118350;27;45581;-50
2022/03/24 00:58:41;;;;;;;;;50.50;39.25;;;;;13.96;32.58;102423.84;5134743;27;45447;-50
2022/03/24 01:01:11;;;;;;;;;50.00;36.75;;;;;13.84;32.82;102405.31;5117436;27;46304;-47
2022/03/24 01:03:36;;;;;;;;;48.25;37.00;;;;;13.91;33.22;102426.06;5118324;27;45403;-50
2022/03/24 01:06:03;;;;;;;;;49.50;36.75;;;;;13.86;32.70;102414.91;5118367;27;45481;-51
2022/03/24 01:08:30;;;;;;;;;47.00;38.00;;;;;13.85;33.10;102420.38;5118661;27;45505;-51
2022/03/24 01:10:57;;;;;;;;;41.75;32.25;;;;;13.83;32.98;102409.81;5117972;27;45302;-48
2022/03/24 01:13:22;;;;;;;;;46.25;40.00;;;;;13.70;33.20;102396.59;5118078;27;45515;-49
2022/03/24 01:15:50;;;;;;;;;45.00;36.00;;;;;13.77;33.04;102407.63;5118177;27;45523;-51
2022/03/24 01:18:16;;;;;;;;;42.25;35.25;;;;;13.63;33.14;102391.88;5118256;27;45436;-51
2022/03/24 01:20:42;;;;;;;;;47.25;37.75;;;;;13.66;33.08;102400.50;5117906;27;46935;-53
2022/03/24 01:23:08;;;;;;;;;35.25;26.25;;;;;13.64;33.51;102399.75;5118195;27;45451;-49
2022/03/24 01:25:34;;;;;;;;;47.50;37.50;;;;;13.63;33.29;102405.25;5118171;27;45392;-50
2022/03/24 01:28:00;;;;;;;;;44.25;34.25;;;;;13.62;33.92;102408.91;5118205;27;45318;-51
2022/03/24 01:30:26;;;;;;;;;52.75;38.00;;;;;13.60;33.41;102411.69;5118220;27;47302;-48
2022/03/24 01:32:51;;;;;;;;;41.50;36.50;;;;;13.53;33.61;102398.97;5118035;27;45475;-49
2022/03/24 01:35:17;;;;;;;;;49.00;35.00;;;;;13.56;33.66;102402.22;5118123;27;45431;-50
2022/03/24 01:37:42;;;;;;;;;44.75;36.50;;;;;13.54;33.91;102404.19;5118413;27;45371;-48
2022/03/24 01:40:10;;;;;;;;;51.50;35.75;;;;;13.51;34.24;102415.13;5117585;27;45413;-49
2022/03/24 01:42:37;;;;;;;;;52.75;37.25;;;;;13.47;34.07;102400.28;5117868;27;45315;-49
2022/03/24 01:45:04;;;;;;;;;55.50;38.50;;;;;13.45;34.15;102404.94;5117774;27;45430;-48
2022/03/24 01:47:30;;;;;;;;;49.75;39.75;;;;;13.44;33.98;102403.22;5117979;27;45287;-47
2022/03/24 01:49:58;;;;;;;;;44.00;35.50;;;;;13.44;34.08;102400.53;5117368;27;45393;-53
2022/03/24 01:52:25;;;;;;;;;45.00;37.00;;;;;13.42;34.37;102399.81;5117567;27;45306;-49
2022/03/24 01:54:54;;;;;;;;;41.75;34.25;;;;;13.32;33.88;102382.84;5117784;27;45473;-50
2022/03/24 01:57:21;;;;;;;;;44.75;38.75;;;;;13.39;34.08;102400.06;5117769;27;45410;-48
2022/03/24 01:59:48;;;;;;;;;55.50;39.75;;;;;13.33;34.66;102393.41;5117360;27;46302;-50
2022/03/24 02:02:14;;;;;;;;;46.25;38.00;;;;;13.31;34.80;102387.31;5117688;27;45406;-51
2022/03/24 02:04:40;;;;;;;;;47.50;37.50;;;;;13.22;34.71;102372.00;5117461;27;45330;-48
2022/03/24 02:07:07;;;;;;;;;57.50;39.00;;;;;13.31;34.87;102389.16;5117807;27;45310;-50
2022/03/24 02:09:33;;;;;;;;;43.75;36.00;;;;;13.27;34.94;102385.88;5116117;27;45598;-52
2022/03/24 02:12:00;;;;;;;;;42.00;36.00;;;;;13.26;35.37;102392.19;5117136;27;45356;-52
2022/03/24 02:14:29;;;;;;;;;48.25;39.00;;;;;13.22;35.04;102390.72;5116510;27;45845;-50
2022/03/24 02:16:55;;;;;;;;;46.75;36.00;;;;;13.18;35.18;102391.94;5117487;27;45245;-52
2022/03/24 02:19:26;;;;;;;;;41.75;38.00;;;;;13.17;35.05;102395.59;5116959;27;45608;-51
2022/03/24 02:21:53;;;;;;;;;45.25;36.25;;;;;13.13;35.09;102386.97;5117387;27;45596;-52
2022/03/24 02:24:21;;;;;;;;;50.00;38.25;;;;;13.12;35.67;102387.09;5117149;27;45326;-50
2022/03/24 02:26:47;;;;;;;;;47.75;37.50;;;;;13.08;35.43;102385.63;5117181;27;45418;-47
2022/03/24 02:29:15;;;;;;;;;56.00;37.75;;;;;12.94;35.20;102368.91;5116969;27;47089;-49
2022/03/24 02:31:49;;;;;;;;;55.50;38.75;;;;;13.02;35.28;102387.00;5117285;27;45720;-49
2022/03/24 02:37:05;;;;;;;;;48.50;38.00;;;;;12.98;35.59;102390.88;5117202;27;45344;-52
2022/03/24 02:39:31;;;;;;;;;44.50;35.00;;;;;12.96;35.90;102384.78;5117031;27;47245;-50
2022/03/24 02:41:57;;;;;;;;;51.75;38.00;;;;;12.94;35.71;102384.06;5117198;27;45797;-50
2022/03/24 02:44:26;;;;;;;;;51.25;36.75;;;;;12.91;35.85;102381.63;5117270;27;45375;-52
2022/03/24 02:46:53;;;;;;;;;36.75;33.50;;;;;12.91;35.05;102386.97;5117101;27;45291;-52
2022/03/24 02:49:22;;;;;;;;;43.00;33.50;;;;;12.89;35.47;102381.78;5116529;27;47212;-49
2022/03/24 02:51:52;;;;;;;;;43.00;33.50;;;;;12.82;35.32;102369.03;5116695;27;45437;-49
2022/03/24 02:54:18;;;;;;;;;47.75;39.00;;;;;12.88;35.90;102389.88;5116910;27;45513;-50
2022/03/24 02:56:44;;;;;;;;;39.75;35.50;;;;;12.86;35.78;102386.50;5116862;27;45404;-51
2022/03/24 02:59:10;;;;;;;;;46.25;36.00;;;;;12.83;35.77;102392.06;5116802;27;46110;-52
2022/03/24 03:01:41;;;;;;;;;43.00;35.00;;;;;12.83;36.12;102386.75;5116709;27;45325;-49
2022/03/24 03:04:07;;;;;;;;;40.75;36.00;;;;;12.82;36.07;102388.56;5116695;27;45423;-52
2022/03/24 03:06:33;;;;;;;;;53.50;38.50;;;;;12.79;36.01;102388.78;5116928;27;45415;-52
2022/03/24 03:09:01;;;;;;;;;45.25;35.75;;;;;12.81;36.04;102391.34;5116398;27;46397;-50
2022/03/24 03:11:30;;;;;;;;;45.75;37.75;;;;;12.68;36.37;102372.75;5116353;27;45444;-51
2022/03/24 03:13:56;;;;;;;;;38.00;31.25;;;;;12.78;35.94;102391.59;5116857;27;45354;-49
2022/03/24 03:16:22;;;;;;;;;47.00;38.50;;;;;12.71;36.38;102388.53;5116844;27;45295;-49
2022/03/24 03:18:47;;;;;;;;;51.50;38.00;;;;;12.58;36.39;102366.44;5116620;27;46158;-49
2022/03/24 03:21:13;;;;;;;;;38.25;29.25;;;;;12.62;36.48;102379.44;5116375;27;45318;-46
2022/03/24 03:23:39;;;;;;;;;48.75;36.75;;;;;12.66;36.53;102388.91;5116500;27;45635;-47
2022/03/24 03:26:05;;;;;;;;;50.75;37.75;;;;;12.64;36.63;102387.31;5119778;27;45415;-47
2022/03/24 03:28:31;;;;;;;;;52.25;38.50;;;;;12.57;37.02;102386.97;5119857;27;46359;-49
2022/03/24 03:30:57;;;;;;;;;48.50;39.00;;;;;12.59;36.76;102393.03;5120256;27;45739;-47
2022/03/24 03:33:23;;;;;;;;;52.00;37.75;;;;;12.54;36.94;102395.19;5119960;27;45383;-52
2022/03/24 03:35:48;;;;;;;;;42.75;37.50;;;;;12.51;36.76;102391.91;5120130;27;45412;-49
2022/03/24 03:38:13;;;;;;;;;49.25;38.50;;;;;12.46;37.17;102384.28;5119785;27;46028;-51
2022/03/24 03:40:39;;;;;;;;;42.00;35.50;;;;;12.48;36.91;102395.69;5119943;27;45335;-50
2022/03/24 03:43:04;;;;;;;;;51.25;36.00;;;;;12.47;36.69;102391.31;5119786;27;45707;-50
2022/03/24 03:45:30;;;;;;;;;46.75;37.00;;;;;12.47;37.12;102393.97;5119796;27;45268;-51
2022/03/24 03:47:55;;;;;;;;;53.00;38.25;;;;;12.44;37.31;102389.75;5119710;27;46419;-52
2022/03/24 03:50:21;;;;;;;;;46.25;35.25;;;;;12.47;37.09;102396.63;5119406;27;45359;-47
2022/03/24 03:52:46;;;;;;;;;39.50;33.25;;;;;12.44;37.46;102392.41;5119846;27;45618;-47
2022/03/24 03:55:12;;;;;;;;;49.25;37.50;;;;;12.43;37.49;102397.84;5119815;27;45337;-49
2022/03/24 03:57:37;;;;;;;;;52.75;38.50;;;;;12.41;37.28;102391.78;5119381;27;45389;-48
2022/03/24 04:00:52;;;;;;;;;42.75;33.75;;;;;12.39;37.76;102388.41;5119418;27;45349;-48
2022/03/24 04:02:51;;;;;;;;;47.00;36.50;;;;;12.38;37.42;102387.53;5119373;27;45441;-48
2022/03/24 04:05:23;;;;;;;;;56.25;35.25;;;;;12.36;38.50;102388.63;5119601;27;45475;-47
2022/03/24 04:07:49;;;;;;;;;52.75;35.25;;;;;12.34;38.17;102387.88;5119041;27;46313;-48
2022/03/24 04:10:15;;;;;;;;;19.75;14.25;;;;;12.31;38.24;102390.81;5119316;27;45452;-48
2022/03/24 04:12:42;;;;;;;;;55.75;40.00;;;;;12.28;38.54;102385.69;5119364;27;45347;-48
2022/03/24 04:15:08;;;;;;;;;44.25;37.00;;;;;12.25;38.52;102381.44;5119481;27;45385;-51
2022/03/24 04:17:33;;;;;;;;;26.75;26.50;;;;;12.23;38.33;102386.91;5119078;27;46191;-49
2022/03/24 04:19:59;;;;;;;;;46.25;38.00;;;;;12.21;37.94;102386.16;5119061;27;45414;-49
2022/03/24 04:22:24;;;;;;;;;44.75;36.00;;;;;12.22;38.49;102387.88;5119399;27;45359;-51
2022/03/24 04:24:50;;;;;;;;;42.00;36.00;;;;;12.18;38.04;102390.91;5119180;27;45490;-48
2022/03/24 04:27:16;;;;;;;;;49.25;39.50;;;;;12.17;38.63;102390.03;5118690;27;46096;-48
2022/03/24 04:29:41;;;;;;;;;44.75;36.00;;;;;12.17;38.93;102395.34;5118806;27;45298;-48
2022/03/24 04:32:07;;;;;;;;;42.50;35.50;;;;;12.15;39.14;102391.13;5118950;27;45415;-48
2022/03/24 04:34:33;;;;;;;;;41.00;35.75;;;;;12.13;39.12;102393.03;5119002;27;45373;-49
2022/03/24 04:36:58;;;;;;;;;43.25;36.75;;;;;12.10;38.98;102383.47;5117493;27;46046;-50
2022/03/24 04:39:23;;;;;;;;;37.00;30.00;;;;;12.09;39.17;102391.56;5118956;27;45321;-48
2022/03/24 04:41:49;;;;;;;;;45.50;31.75;;;;;12.07;39.03;102382.84;5118795;27;45312;-48
2022/03/24 04:44:14;;;;;;;;;45.25;36.75;;;;;12.04;38.79;102380.41;5118970;27;45848;-48
2022/03/24 04:46:40;;;;;;;;;42.50;36.75;;;;;12.02;38.57;102385.03;5118577;27;45307;-51
2022/03/24 04:49:05;;;;;;;;;26.00;26.00;;;;;12.02;37.71;102388.53;5118544;27;45342;-51
2022/03/24 04:51:30;;;;;;;;;43.50;37.00;;;;;12.02;37.03;102393.88;5118527;27;45630;-50
2022/03/24 04:53:56;;;;;;;;;42.00;30.00;;;;;12.00;37.75;102387.78;5118854;27;45430;-52
2022/03/24 04:56:21;;;;;;;;;40.25;27.50;;;;;11.99;37.57;102386.09;5118378;27;45439;-51
2022/03/24 04:58:48;;;;;;;;;48.25;35.00;;;;;12.01;37.26;102385.97;5118332;27;45397;-50
2022/03/24 05:01:13;;;;;;;;;35.50;33.50;;;;;11.99;37.58;102383.41;5118629;27;45359;-48
2022/03/24 05:03:42;;;;;;;;;44.75;33.00;;;;;11.99;37.58;102386.09;5118654;27;45389;-49
2022/03/24 05:06:08;;;;;;;;;44.00;31.00;;;;;11.98;37.65;102381.72;5118216;27;46325;-49
2022/03/24 05:08:33;;;;;;;;;41.50;36.25;;;;;11.97;37.70;102377.38;5118340;27;45672;-51
2022/03/24 05:10:59;;;;;;;;;55.00;37.00;;;;;11.96;37.76;102381.81;5118452;27;45624;-49
2022/03/24 05:13:24;;;;;;;;;39.00;32.50;;;;;11.93;37.27;102383.91;5118617;27;45528;-52
2022/03/24 05:15:50;;;;;;;;;46.25;35.25;;;;;11.92;37.72;102382.19;5117889;27;47287;-48
2022/03/24 05:18:15;;;;;;;;;41.25;31.25;;;;;11.91;37.85;102375.16;5118337;27;45405;-49
2022/03/24 05:20:40;;;;;;;;;43.25;35.00;;;;;11.82;38.34;102367.81;5118360;27;45347;-52
2022/03/24 05:23:06;;;;;;;;;38.25;33.75;;;;;11.88;38.56;102383.38;5118504;27;45212;-52
2022/03/24 05:25:31;;;;;;;;;44.75;35.25;;;;;11.85;38.71;102388.97;5118019;27;46002;-49
2022/03/24 05:27:56;;;;;;;;;54.25;40.25;;;;;11.83;38.33;102388.19;5117896;27;45402;-48
2022/03/24 05:30:22;;;;;;;;;51.50;39.50;;;;;11.82;38.66;102387.31;5118321;27;45282;-47
2022/03/24 05:32:47;;;;;;;;;43.50;30.75;;;;;11.80;39.30;102391.94;5118257;27;45414;-49
2022/03/24 05:35:13;;;;;;;;;43.50;34.25;;;;;11.78;39.41;102391.19;5117833;27;45965;-46
2022/03/24 05:37:38;;;;;;;;;42.00;36.75;;;;;11.78;39.52;102393.00;5117810;27;45326;-48
2022/03/24 05:40:04;;;;;;;;;40.00;35.25;;;;;11.78;39.50;102390.34;5117946;27;45593;-48
2022/03/24 05:42:29;;;;;;;;;42.50;34.00;;;;;11.74;39.65;102385.22;5118146;27;45424;-47
2022/03/24 05:44:55;;;;;;;;;50.00;36.25;;;;;11.76;39.70;102390.47;5117313;27;46293;-49
2022/03/24 05:47:20;;;;;;;;;43.00;36.25;;;;;11.62;40.02;102367.47;5117504;27;45183;-45
2022/03/24 05:49:46;;;;;;;;;44.25;37.00;;;;;11.76;39.83;102389.63;5117700;27;45433;-47
2022/03/24 05:52:11;;;;;;;;;47.00;33.50;;;;;11.70;39.58;102380.25;5118024;27;45261;-49
2022/03/24 05:54:37;;;;;;;;;47.00;37.25;;;;;11.70;40.02;102382.91;5117652;27;46229;-47
2022/03/24 05:57:03;;;;;;;;;49.50;38.00;;;;;11.75;39.35;102391.41;5117585;27;45416;-47
2022/03/24 05:59:28;;;;;;;;;47.75;33.25;;;;;11.74;39.70;102393.22;5117586;27;45437;-47
2022/03/24 06:01:54;;;;;;;;;48.25;37.00;;;;;11.74;39.80;102392.38;5117854;27;45811;-46
2022/03/24 06:04:23;;;;;;;;;50.75;37.25;;;;;11.77;39.29;102393.97;5117461;27;46370;-48
2022/03/24 06:06:53;;;;;;;;;40.50;32.75;;;;;11.77;39.33;102404.63;5117457;27;45422;-48
2022/03/24 06:09:19;;;;;;;;;39.75;33.50;;;;;11.78;38.91;102390.34;5117579;27;45355;-48
2022/03/24 06:11:44;;;;;;;;;52.25;37.75;;;;;11.84;39.01;102401.44;5117365;27;45322;-50
2022/03/24 06:14:12;;;;;;;;;43.00;33.50;;;;;11.88;38.63;102404.69;5117084;27;46165;-48
2022/03/24 06:16:38;;;;;;;;;39.50;34.75;;;;;11.89;39.01;102399.28;5117515;27;45435;-48
2022/03/24 06:19:04;;;;;;;;;42.50;38.00;;;;;11.93;39.23;102406.09;5117217;27;45395;-50
2022/03/24 06:21:29;;;;;;;;;51.25;37.00;;;;;11.67;39.48;102353.81;5117624;27;45577;-46
2022/03/24 06:23:55;;;;;;;;;49.25;38.75;;;;;11.99;39.01;102402.09;5117057;27;47110;-47
2022/03/24 06:26:21;;;;;;;;;40.00;32.50;;;;;12.01;39.36;102397.50;5117220;27;45367;-48
2022/03/24 06:28:47;;;;;;;;;48.00;36.50;;;;;12.08;39.34;102401.41;5117153;27;45313;-47
2022/03/24 06:31:12;;;;;;;;;48.75;37.00;;;;;12.13;39.21;102407.22;5117294;27;45453;-48
2022/03/24 06:33:38;;;;;;;;;40.75;35.25;;;;;12.17;39.49;102403.34;5117017;27;47012;-47
2022/03/24 06:36:04;;;;;;;;;45.75;37.75;;;;;12.21;39.66;102401.31;5116936;27;45351;-47
2022/03/24 06:38:30;;;;;;;;;42.00;33.00;;;;;12.23;39.92;102405.56;5117312;27;45349;-49
2022/03/24 06:40:55;;;;;;;;;46.00;37.00;;;;;12.23;39.55;102405.56;5117319;27;45443;-50
2022/03/24 06:43:23;;;;;;;;;54.75;35.75;;;;;12.26;40.11;102401.81;5116891;27;46317;-50
2022/03/24 06:45:48;;;;;;;;;47.75;35.25;;;;;12.29;39.75;102403.41;5116750;27;45483;-50
2022/03/24 06:48:15;;;;;;;;;54.25;39.25;;;;;12.29;39.57;102388.25;5116795;27;45673;-49
2022/03/24 06:50:40;;;;;;;;;44.50;36.75;;;;;12.37;39.25;102407.19;5117120;27;45630;-50
2022/03/24 06:53:06;;;;;;;;;49.00;38.75;;;;;12.42;39.68;102407.66;5116568;27;46096;-51
2022/03/24 06:55:31;;;;;;;;;44.50;36.50;;;;;12.48;39.16;102407.22;5132693;27;45289;-50
2022/03/24 06:57:57;;;;;;;;;37.50;34.75;;;;;12.53;39.20;102406.84;5117094;27;45308;-50
2022/03/24 07:00:23;;;;;;;;;44.25;37.00;;;;;12.59;39.32;102408.19;5119041;27;45441;-50
2022/03/24 07:02:48;;;;;;;;;55.50;38.25;;;;;12.62;39.12;102419.50;5120124;27;46160;-50
2022/03/24 07:05:14;;;;;;;;;59.25;40.00;;;;;12.57;38.85;102399.47;5120504;27;45853;-51
2022/03/24 07:07:40;;;;;;;;;47.75;38.50;;;;;12.72;38.44;102423.16;5120461;27;45441;-48
2022/03/24 07:10:07;;;;;;;;;47.50;38.00;;;;;12.80;38.68;102421.69;5120316;27;45313;-49
2022/03/24 07:12:34;;;;;;;;;57.00;39.75;;;;;12.85;38.67;102420.38;5119840;27;45405;-50
2022/03/24 07:15:00;;;;;;;;;55.50;39.25;;;;;12.92;38.89;102423.41;5119959;27;45350;-50
2022/03/24 07:17:25;;;;;;;;;38.25;36.25;;;;;12.97;38.79;102419.38;5120422;27;45392;-49
2022/03/24 07:19:50;;;;;;;;;56.75;40.75;;;;;13.01;39.03;102417.31;5120600;27;45317;-51
2022/03/24 07:22:16;;;;;;;;;53.00;39.00;;;;;13.08;38.56;102423.03;5119947;27;46089;-49
2022/03/24 07:24:42;;;;;;;;;47.50;40.25;;;;;13.11;38.71;102418.31;5120134;27;45382;-49
2022/03/24 07:27:07;;;;;;;;;60.00;42.50;;;;;13.13;38.81;102410.16;5120192;27;45347;-49
2022/03/24 07:29:33;;;;;;;;;59.00;41.00;;;;;13.20;38.32;102419.41;5120180;27;45545;-48
2022/03/24 07:32:01;;;;;;;;;55.50;40.50;;;;;13.25;37.38;102422.56;5119845;27;45473;-48
2022/03/24 07:34:27;;;;;;;;;54.75;38.00;;;;;13.34;36.96;102420.97;5120088;27;45443;-49
2022/03/24 07:36:53;;;;;;;;;47.00;37.00;;;;;13.43;36.01;102420.22;5120115;27;45691;-49
2022/03/24 07:39:18;;;;;;;;;54.50;37.25;;;;;13.52;36.07;102423.97;5120121;27;45408;-50
2022/03/24 07:41:44;;;;;;;;;51.00;37.50;;;;;13.59;35.53;102425.19;5119802;27;45307;-49
2022/03/24 07:44:09;;;;;;;;;35.50;29.50;;;;;13.65;35.28;102420.19;5119506;27;45372;-50
2022/03/24 07:46:35;;;;;;;;;42.50;33.25;;;;;13.76;34.56;102430.00;5119913;27;45607;-47
2022/03/24 07:49:00;;;;;;;;;44.25;31.75;;;;;13.83;34.39;102433.88;5119830;27;45304;-50
2022/03/24 07:51:31;;;;;;;;;41.50;35.00;;;;;13.85;34.72;102423.03;5119264;27;45402;-51
2022/03/24 07:54:02;;;;;;;;;45.50;36.50;;;;;13.91;34.06;102444.78;5119784;27;45411;-50
2022/03/24 07:56:28;;;;;;;;;46.75;32.50;;;;;13.95;34.30;102438.22;5119615;27;45791;-49
2022/03/24 07:58:54;;;;;;;;;36.50;32.25;;;;;14.02;34.17;102438.53;5119837;27;45312;-51
2022/03/24 08:01:31;;;;;;;;;41.00;30.50;;;;;14.00;33.47;102436.97;5119296;27;46425;-50
2022/03/24 08:03:59;;;;;;;;;47.00;33.25;;;;;14.06;33.88;102431.94;5118034;27;45416;-50
2022/03/24 08:06:25;;;;;;;;;45.00;35.25;;;;;14.16;33.74;102440.09;5119590;27;45338;-50
2022/03/24 08:08:51;;;;;;;;;51.25;35.00;;;;;14.26;33.32;102434.78;5119630;27;45365;-49
2022/03/24 08:11:16;;;;;;;;;46.25;35.00;;;;;14.30;32.89;102438.91;5119027;27;46341;-48
2022/03/24 08:13:42;;;;;;;;;51.50;36.00;;;;;14.38;32.46;102436.44;5119367;27;45365;-51
2022/03/24 08:16:08;;;;;;;;;38.00;33.75;;;;;14.45;32.78;102438.47;5119074;27;45351;-50
2022/03/24 08:18:33;;;;;;;;;42.25;34.00;;;;;14.58;32.79;102435.63;5119579;27;45443;-50
2022/03/24 08:20:59;;;;;;;;;46.00;34.00;;;;;14.73;32.40;102449.50;5119093;27;46111;-50
2022/03/24 08:23:25;;;;;;;;;48.00;38.00;;;;;14.90;32.38;102434.66;5111892;27;46010;-48
2022/03/24 08:25:51;;;;;;;;;46.75;35.75;;;;;15.15;32.22;102447.59;5104308;27;45489;-47
2022/03/24 08:28:17;;;;;;;;;44.75;32.25;;;;;15.38;31.55;102442.03;5115485;27;45664;-49
2022/03/24 08:30:44;;;;;;;;;42.25;32.50;;;;;15.58;31.76;102438.41;5115518;27;47131;-52
2022/03/24 08:33:10;;;;;;;;;45.75;38.00;;;;;15.71;31.45;102428.28;5113998;27;45523;-49
2022/03/24 08:35:37;;;;;;;;;52.75;35.50;;;;;15.93;31.22;102440.63;5095718;27;45440;-47
2022/03/24 08:38:03;;;;;;;;;52.50;35.25;;;;;16.19;30.51;102442.75;5096306;27;45435;-52
2022/03/24 08:40:28;;;;;;;;;42.50;34.75;;;;;17.38;29.24;102442.13;5102009;27;45905;-50
2022/03/24 08:42:54;;;;;;;;;42.00;34.00;;;;;19.44;27.32;102439.03;5106913;27;45623;-49
2022/03/24 08:45:20;;;;;;;;;42.67;36.33;;;;;21.10;24.97;102427.03;5113179;27;45406;-48
2022/03/24 08:47:46;;;;;;;;;48.33;38.33;;;;;22.64;22.40;102434.31;5116009;27;45434;-49
2022/03/24 08:50:12;;;;;;;;;46.00;37.00;;;;;24.06;21.54;102432.97;5105292;27;46071;-50
2022/03/24 08:52:38;;;;;;;;;46.33;35.67;;;;;24.95;20.78;102429.69;5102226;27;46262;-51
2022/03/24 08:55:05;;;;;;;;;50.67;38.67;;;;;25.79;20.14;102428.56;5114955;27;45402;-52
2022/03/24 08:57:32;;;;;;;;;43.00;32.33;;;;;26.82;19.14;102434.44;5103591;27;46292;-50
2022/03/24 09:00:02;;;;;;;;;48.67;36.00;;;;;27.42;18.13;102434.22;5115444;27;45304;-48
2022/03/24 09:02:29;;;;;;;;;50.33;37.00;;;;;27.91;17.71;102438.19;5115199;27;45463;-50
2022/03/24 09:04:55;;;;;;;;;31.33;25.33;;;;;28.50;16.92;102442.34;5106100;27;45400;-49
2022/03/24 09:07:20;;;;;;;;;44.67;36.67;;;;;28.88;16.75;102444.06;5097710;27;45384;-54
2022/03/24 09:09:45;;;;;;;;;38.33;33.67;;;;;29.29;16.39;102446.13;5097822;27;45374;-48
2022/03/24 09:12:13;;;;;;;;;47.00;35.33;;;;;29.83;16.02;102444.31;5097583;27;45430;-50
2022/03/24 09:14:39;;;;;;;;;40.00;35.00;;;;;30.24;16.06;102442.66;5107146;27;46266;-49
2022/03/24 09:17:06;;;;;;;;;42.00;33.00;;;;;30.23;16.39;102449.22;5103255;27;45505;-50
2022/03/24 09:19:33;;;;;;;;;50.67;34.33;;;;;30.44;15.27;102443.16;5110229;27;46182;-49
2022/03/24 09:22:00;;;;;;;;;40.67;33.67;;;;;30.55;15.15;102447.81;5107376;27;45507;-51
2022/03/24 09:24:26;;;;;;;;;43.00;35.00;;;;;29.93;17.26;102450.09;5112858;27;45292;-49
2022/03/24 09:26:52;;;;;;;;;45.25;33.75;;;;;29.56;16.23;102446.63;5114305;27;45502;-52
2022/03/24 09:29:17;;;;;;;;;45.67;36.00;;;;;29.40;16.29;102439.84;5112629;27;45424;-49
2022/03/24 09:31:43;;;;;;;;;48.33;37.00;;;;;29.46;16.64;102441.69;5112161;27;45942;-51
2022/03/24 09:34:09;;;;;;;;;44.75;34.50;;;;;29.46;16.87;102438.94;5112707;27;45457;-48
2022/03/24 09:36:35;;;;;;;;;51.00;38.33;;;;;29.44;15.89;102438.31;5112921;27;45500;-48
2022/03/24 09:39:02;;;;;;;;;42.33;35.33;;;;;29.52;16.65;102438.00;5112562;27;46159;-49
2022/03/24 09:41:30;;;;;;;;;47.33;36.33;;;;;29.46;16.88;102427.97;5100186;27;45510;-48
2022/03/24 09:43:58;;;;;;;;;46.00;36.25;;;;;29.67;16.91;102434.88;5093769;27;45511;-49
2022/03/24 09:46:26;;;;;;;;;38.75;31.50;;;;;29.84;17.92;102435.03;5106959;27;45551;-50
2022/03/24 09:48:52;;;;;;;;;44.50;36.00;;;;;29.87;16.06;102433.72;5112176;27;46256;-49
2022/03/24 09:51:18;;;;;;;;;46.00;36.00;;;;;30.05;15.89;102434.50;5111839;27;45449;-51
2022/03/24 09:53:43;;;;;;;;;47.75;35.75;;;;;30.13;15.41;102427.81;5112085;27;45520;-50
2022/03/24 09:56:09;;;;;;;;;45.00;35.50;;;;;30.24;15.79;102423.44;5112639;27;45576;-52
2022/03/24 09:58:34;;;;;;;;;47.75;36.25;;;;;30.60;15.09;102418.78;5112237;27;45877;-49
2022/03/24 10:01:01;;;;;;;;;49.00;37.00;;;;;31.17;14.83;102424.41;5112427;27;46333;-50
2022/03/24 10:03:26;;;;;;;;;39.00;32.50;;;;;32.30;14.45;102417.13;5112049;27;45442;-51
2022/03/24 10:06:07;;;;;;;;;46.25;35.25;;;;;34.43;13.33;102431.69;5112134;27;45910;-50
2022/03/24 10:08:33;;;;;;;;;40.00;31.25;;;;;36.54;11.72;102428.31;5111689;27;46251;-48
2022/03/24 10:11:06;;;;;;;;;41.40;33.80;;;;;38.09;10.75;102416.88;5111799;27;45756;-49
2022/03/24 10:13:41;;;;;;;;;45.00;32.80;;;;;39.41;11.04;102411.69;5112132;27;45488;-51
2022/03/24 10:16:08;;;;;;;;;44.75;35.50;;;;;40.49;9.14;102411.47;5099083;27;45557;-51
2022/03/24 10:18:33;;;;;;;;;39.60;31.20;;;;;41.13;9.25;102412.38;5093218;27;45815;-49
2022/03/24 10:21:07;;;;;;;;;42.00;35.00;;;;;41.73;8.55;102405.63;5100689;27;45636;-51
2022/03/24 10:23:35;;;;;;;;;37.40;33.40;;;;;42.43;8.20;102400.41;5093291;27;45495;-48
2022/03/24 10:26:05;;;;;;;;;34.20;31.80;;;;;42.95;7.77;102407.00;5111361;27;45519;-52
2022/03/24 10:28:30;;;;;;;;;40.60;32.80;;;;;43.52;8.23;102389.25;5111155;27;47078;-52
2022/03/24 10:31:03;;;;;;;;;43.00;32.75;;;;;44.13;7.79;102392.72;5112265;27;45556;-52
2022/03/24 10:33:45;;;;;;;;;35.00;32.60;;;;;44.76;7.45;102398.53;5111695;27;45556;-51
2022/03/24 10:36:17;;;;;;;;;43.80;33.20;;;;;45.37;7.01;102392.44;5115212;27;45589;-52
2022/03/24 10:38:48;;;;;;;;;44.00;33.80;;;;;45.80;7.04;102392.03;5115274;27;45439;-50
2022/03/24 10:41:15;;;;;;;;;33.00;29.80;;;;;46.35;6.28;102398.31;5115491;27;45503;-52
2022/03/24 10:43:41;;;;;;;;;40.00;34.20;;;;;46.64;6.75;102386.81;5115236;27;45411;-52
2022/03/24 10:46:18;;;;;;;;;36.75;30.50;;;;;46.81;6.96;102385.72;5115740;27;45527;-52
2022/03/24 10:48:44;;;;;;;;;35.60;32.20;;;;;46.80;6.26;102388.88;5114542;27;45462;-52
2022/03/24 10:51:10;;;;;;;;;38.00;30.80;;;;;47.11;5.78;102388.22;5114625;27;45560;-52
2022/03/24 10:53:42;;;;;;;;;35.50;31.75;;;;;47.15;6.13;102386.31;5114962;27;45480;-52
2022/03/24 10:56:15;;;;;;;;;32.40;28.20;;;;;47.49;6.74;102382.06;5097349;27;46515;-51
2022/03/24 10:58:52;;;;;;;;;32.40;29.00;;;;;47.58;6.62;102388.38;5114958;27;47390;-53
2022/03/24 11:01:21;;;;;;;;;33.40;27.40;;;;;46.83;6.58;102382.56;5114594;27;45821;-51
2022/03/24 11:03:47;;;;;;;;;39.60;32.60;;;;;47.12;6.46;102387.06;5115186;27;45458;-50
2022/03/24 11:06:15;;;;;;;;;34.00;29.80;;;;;46.90;6.00;102394.00;5114502;27;45643;-50
2022/03/24 11:09:01;;;;;;;;;34.80;29.60;;;;;47.13;7.48;102392.34;5114495;27;46017;-52